createdAt,value
2023-01-22T00:02:02.788Z,97431.09
2023-01-22T00:04:32.549Z,97433.53
2023-01-22T00:07:04.369Z,97436.31
2023-01-22T00:09:35.954Z,97433.78
2023-01-22T00:12:05.411Z,97428.66
2023-01-22T00:14:36.612Z,97423.53
2023-01-22T00:17:14.398Z,97422.47
2023-01-22T00:19:46.566Z,97422.47
2023-01-22T00:22:15.667Z,97430.59
2023-01-22T00:24:44.964Z,97429.84
2023-01-22T00:27:16.859Z,97425.41
2023-01-22T00:29:46.029Z,97430.69
2023-01-22T00:32:17.104Z,97426.47
2023-01-22T00:35:09.619Z,97432.31
2023-01-22T00:37:41.883Z,97432.00
2023-01-22T00:40:12.405Z,97432.41
2023-01-22T00:42:41.129Z,97430.56
2023-01-22T00:45:12.048Z,97428.56
2023-01-22T00:47:43.067Z,97442.22
2023-01-22T00:50:13.411Z,97441.47
2023-01-22T00:52:42.471Z,97440.88
2023-01-22T00:55:14.880Z,97441.94
2023-01-22T00:57:52.075Z,97441.53
2023-01-22T01:00:31.254Z,97445.78
2023-01-22T01:03:31.831Z,97445.16
2023-01-22T01:06:02.987Z,97441.09
2023-01-22T01:08:46.204Z,97447.59
2023-01-22T01:11:18.693Z,97445.16
2023-01-22T01:13:49.117Z,97449.59
2023-01-22T01:16:22.136Z,97443.97
2023-01-22T01:18:55.212Z,97454.06
2023-01-22T01:21:24.291Z,97452.22
2023-01-22T01:23:56.791Z,97459.28
2023-01-22T01:26:31.401Z,97461.34
2023-01-22T01:29:04.593Z,97460.56
2023-01-22T01:31:53.461Z,97455.88
2023-01-22T01:34:24.050Z,97457.28
2023-01-22T01:36:55.622Z,97459.28
2023-01-22T01:39:27.276Z,97456.25
2023-01-22T01:41:56.483Z,97451.38
2023-01-22T01:44:27.571Z,97453.84
2023-01-22T01:47:11.468Z,97453.78
2023-01-22T01:49:46.296Z,97457.25
2023-01-22T01:52:19.488Z,97452.66
2023-01-22T01:54:53.207Z,97459.00
2023-01-22T01:57:24.751Z,97462.44
2023-01-22T01:59:55.079Z,97457.00
2023-01-22T02:02:33.181Z,97463.06
2023-01-22T02:05:04.170Z,97462.22
2023-01-22T02:07:33.794Z,97462.59
2023-01-22T02:10:07.637Z,97462.19
2023-01-22T02:12:41.755Z,97459.31
2023-01-22T02:15:11.581Z,97468.22
2023-01-22T02:17:40.768Z,97473.50
2023-01-22T02:20:21.231Z,97471.50
2023-01-22T02:23:02.120Z,97474.31
2023-01-22T02:25:42.050Z,97473.97
2023-01-22T02:28:14.120Z,97477.38
2023-01-22T02:30:45.039Z,97471.13
2023-01-22T02:33:17.114Z,97476.00
2023-01-22T02:35:46.920Z,97476.41
2023-01-22T02:38:25.331Z,97477.28
2023-01-22T02:40:55.165Z,97470.38
2023-01-22T02:43:24.986Z,97470.22
2023-01-22T02:46:04.123Z,97475.03
2023-01-22T02:48:58.928Z,97475.69
2023-01-22T02:51:28.313Z,97473.69
2023-01-22T02:54:06.212Z,97471.38
2023-01-22T02:56:42.658Z,97475.25
2023-01-22T02:59:24.903Z,97471.16
2023-01-22T03:01:54.638Z,97467.53
2023-01-22T03:04:26.778Z,97467.31
2023-01-22T03:07:16.432Z,97469.53
2023-01-22T03:09:47.083Z,97472.00
2023-01-22T03:12:30.821Z,97470.78
2023-01-22T03:15:29.102Z,97473.69
2023-01-22T03:18:16.416Z,97472.41
2023-01-22T03:21:03.342Z,97476.25
2023-01-22T03:23:32.852Z,97468.09
2023-01-22T03:26:03.990Z,97472.78
2023-01-22T03:28:33.603Z,97473.44
2023-01-22T03:31:13.436Z,97482.00
2023-01-22T03:33:43.311Z,97480.75
2023-01-22T03:36:15.332Z,97480.53
2023-01-22T03:38:52.306Z,97481.28
2023-01-22T03:41:31.542Z,97477.22
2023-01-22T03:44:02.777Z,97481.56
2023-01-22T03:47:10.185Z,97479.69
2023-01-22T03:49:40.406Z,97487.50
2023-01-22T03:52:09.605Z,97486.88
2023-01-22T03:54:49.055Z,97487.28
2023-01-22T03:57:19.578Z,97489.72
2023-01-22T04:00:02.291Z,97490.88
2023-01-22T04:02:53.894Z,97492.88
2023-01-22T04:05:27.625Z,97493.28
2023-01-22T04:08:07.383Z,97489.78
2023-01-22T04:10:50.162Z,97488.75
2023-01-22T04:13:23.787Z,97502.53
2023-01-22T04:16:03.027Z,97499.72
2023-01-22T04:19:04.270Z,97503.38
2023-01-22T04:21:45.654Z,97506.81
2023-01-22T04:24:23.981Z,97505.34
2023-01-22T04:26:54.194Z,97499.69
2023-01-22T04:29:25.631Z,97511.53
2023-01-22T04:31:55.666Z,97504.22
2023-01-22T04:34:44.402Z,97506.94
2023-01-22T04:44:55.560Z,97518.91
2023-01-22T04:47:26.448Z,97521.56
2023-01-22T04:52:49.362Z,97517.78
2023-01-22T04:55:25.411Z,97522.84
2023-01-22T04:58:05.782Z,97523.28
2023-01-22T05:00:37.137Z,97526.72
2023-01-22T05:03:06.564Z,97525.53
2023-01-22T05:05:35.955Z,97531.44
2023-01-22T05:08:05.341Z,97531.44
2023-01-22T05:10:48.794Z,97529.38
2023-01-22T05:13:22.799Z,97538.50
2023-01-22T05:15:54.054Z,97537.25
2023-01-22T05:18:27.851Z,97540.88
2023-01-22T05:20:57.350Z,97541.50
2023-01-22T05:23:30.556Z,97545.72
2023-01-22T05:26:01.584Z,97545.53
2023-01-22T05:28:41.934Z,97548.94
2023-01-22T05:31:36.005Z,97548.16
2023-01-22T05:34:21.182Z,97548.16
2023-01-22T05:37:02.284Z,97556.72
2023-01-22T05:39:38.425Z,97559.19
2023-01-22T05:42:15.130Z,97565.63
2023-01-22T05:44:52.513Z,97551.41
2023-01-22T05:47:26.830Z,97556.28
2023-01-22T05:50:11.361Z,97556.69
2023-01-22T05:52:40.589Z,97556.28
2023-01-22T05:55:12.240Z,97564.38
2023-01-22T05:57:48.832Z,97572.50
2023-01-22T06:00:21.111Z,97566.41
2023-01-22T06:02:59.074Z,97572.16
2023-01-22T06:05:29.975Z,97572.97
2023-01-22T06:08:06.501Z,97580.91
2023-01-22T06:10:45.634Z,97572.16
2023-01-22T06:13:24.149Z,97573.81
2023-01-22T06:16:00.311Z,97578.91
2023-01-22T06:18:53.675Z,97576.47
2023-01-22T06:21:24.624Z,97584.38
2023-01-22T06:23:58.225Z,97570.19
2023-01-22T06:26:31.000Z,97576.47
2023-01-22T06:29:01.845Z,97578.09
2023-01-22T06:31:32.783Z,97577.91
2023-01-22T06:34:23.917Z,97576.53
2023-01-22T06:37:12.239Z,97580.34
2023-01-22T06:39:42.165Z,97580.34
2023-01-22T06:42:26.977Z,97585.44
2023-01-22T06:45:09.845Z,97585.22
2023-01-22T06:47:45.080Z,97592.53
2023-01-22T06:50:17.909Z,97597.78
2023-01-22T06:52:56.778Z,97593.72
2023-01-22T06:55:28.863Z,97592.94
2023-01-22T06:58:29.525Z,97599.41
2023-01-22T07:01:03.216Z,97600.63
2023-01-22T07:03:42.802Z,97605.47
2023-01-22T07:06:13.575Z,97604.44
2023-01-22T07:08:52.310Z,97620.66
2023-01-22T07:11:27.571Z,97617.25
2023-01-22T07:13:57.220Z,97620.25
2023-01-22T07:16:29.662Z,97624.91
2023-01-22T07:19:01.893Z,97620.88
2023-01-22T07:21:33.148Z,97635.88
2023-01-22T07:24:11.053Z,97624.34
2023-01-22T07:26:40.349Z,97633.88
2023-01-22T07:29:11.268Z,97630.19
2023-01-22T07:31:54.266Z,97629.59
2023-01-22T07:34:23.811Z,97636.28
2023-01-22T07:36:54.759Z,97633.44
2023-01-22T07:39:24.449Z,97644.78
2023-01-22T07:41:53.561Z,97636.69
2023-01-22T07:44:22.867Z,97642.34
2023-01-22T07:46:57.493Z,97643.16
2023-01-22T07:49:32.931Z,97643.78
2023-01-22T07:52:03.476Z,97635.88
2023-01-22T07:54:36.810Z,97650.06
2023-01-22T07:57:21.615Z,97653.50
2023-01-22T08:00:19.205Z,97658.59
2023-01-22T08:02:50.434Z,97665.69
2023-01-22T08:05:19.720Z,97666.28
2023-01-22T08:08:10.751Z,97666.28
2023-01-22T08:10:42.795Z,97667.50
2023-01-22T08:13:12.530Z,97668.31
2023-01-22T08:15:45.924Z,97665.06
2023-01-22T08:18:16.481Z,97672.16
2023-01-22T08:20:46.350Z,97674.78
2023-01-22T08:23:17.082Z,97676.81
2023-01-22T08:25:46.613Z,97677.44
2023-01-22T08:28:16.423Z,97677.44
2023-01-22T08:30:46.945Z,97676.81
2023-01-22T08:33:27.110Z,97685.53
2023-01-22T08:35:56.718Z,97690.19
2023-01-22T08:38:30.135Z,97691.63
2023-01-22T08:40:59.624Z,97694.44
2023-01-22T08:43:34.882Z,97693.81
2023-01-22T08:46:07.229Z,97698.72
2023-01-22T08:48:39.790Z,97699.53
2023-01-22T08:51:09.042Z,97704.19
2023-01-22T08:53:43.024Z,97703.56
2023-01-22T08:56:14.881Z,97710.06
2023-01-22T08:58:50.435Z,97715.72
2023-01-22T09:01:20.791Z,97715.72
2023-01-22T09:03:50.267Z,97723.81
2023-01-22T09:06:20.389Z,97734.13
2023-01-22T09:08:53.197Z,97729.66
2023-01-22T09:14:10.207Z,97742.66
2023-01-22T09:16:39.524Z,97737.16
2023-01-22T09:19:14.937Z,97741.19
2023-01-22T09:21:44.232Z,97743.44
2023-01-22T09:24:14.675Z,97748.94
2023-01-22T09:26:46.527Z,97750.94
2023-01-22T09:29:16.109Z,97750.09
2023-01-22T09:31:45.043Z,97755.53
2023-01-22T09:34:16.203Z,97752.69
2023-01-22T09:36:46.096Z,97754.69
2023-01-22T09:42:20.899Z,97739.84
2023-01-22T09:44:52.996Z,97743.34
2023-01-22T09:47:32.557Z,97740.91
2023-01-22T09:50:05.733Z,97748.78
2023-01-22T09:52:57.278Z,97746.78
2023-01-22T09:55:32.514Z,97742.00
2023-01-22T09:58:06.450Z,97739.53
2023-01-22T10:00:40.238Z,97739.69
2023-01-22T10:03:16.599Z,97750.53
2023-01-22T10:05:58.164Z,97753.31
2023-01-22T10:08:32.710Z,97756.28
2023-01-22T10:11:27.103Z,97751.22
2023-01-22T10:14:03.058Z,97747.63
2023-01-22T10:16:35.227Z,97754.69
2023-01-22T10:19:13.847Z,97753.91
2023-01-22T10:21:45.197Z,97756.47
2023-01-22T10:24:14.502Z,97758.47
2023-01-22T10:26:48.496Z,97740.09
2023-01-22T10:29:25.694Z,97740.16
2023-01-22T10:31:57.003Z,97746.72
2023-01-22T10:34:34.747Z,97738.63
2023-01-22T10:37:06.508Z,97741.56
2023-01-22T10:39:48.360Z,97743.09
2023-01-22T10:42:27.837Z,97750.03
2023-01-22T10:44:58.261Z,97750.03
2023-01-22T10:47:28.983Z,97751.00
2023-01-22T10:50:04.960Z,97749.25
2023-01-22T10:52:39.570Z,97748.03
2023-01-22T10:55:21.273Z,97745.97
2023-01-22T10:57:56.110Z,97747.53
2023-01-22T11:00:46.639Z,97750.16
2023-01-22T11:03:22.678Z,97748.28
2023-01-22T11:05:54.250Z,97752.28
2023-01-22T11:08:27.306Z,97744.88
2023-01-22T11:11:03.321Z,97746.09
2023-01-22T11:13:46.985Z,97747.22
2023-01-22T11:16:20.406Z,97749.19
2023-01-22T11:18:55.640Z,97748.38
2023-01-22T11:21:34.655Z,97743.84
2023-01-22T11:24:21.822Z,97740.09
2023-01-22T11:27:14.346Z,97740.56
2023-01-22T11:30:04.854Z,97735.22
2023-01-22T11:32:54.161Z,97733.75
2023-01-22T11:35:29.479Z,97722.78
2023-01-22T11:38:18.421Z,97728.16
2023-01-22T11:41:27.444Z,97724.53
2023-01-22T11:44:25.026Z,97727.19
2023-01-22T11:47:08.966Z,97719.00
2023-01-22T11:49:49.018Z,97720.97
2023-01-22T11:52:31.108Z,97722.16
2023-01-22T11:55:16.074Z,97716.34
2023-01-22T11:57:52.140Z,97722.13
2023-01-22T12:00:39.767Z,97716.78
2023-01-22T12:03:29.868Z,97716.47
2023-01-22T12:06:16.957Z,97714.59
2023-01-22T12:08:58.261Z,97718.34
2023-01-22T12:11:46.919Z,97717.66
2023-01-22T12:14:43.249Z,97719.56
2023-01-22T12:17:44.398Z,97713.03
2023-01-22T12:20:53.429Z,97714.66
2023-01-22T12:23:26.930Z,97724.41
2023-01-22T12:26:01.044Z,97719.13
2023-01-22T12:28:36.389Z,97729.69
2023-01-22T12:31:12.420Z,97728.84
2023-01-22T12:33:55.020Z,97721.06
2023-01-22T12:36:27.027Z,97731.00
2023-01-22T12:39:02.470Z,97731.88
2023-01-22T12:41:54.003Z,97721.28
2023-01-22T12:44:36.457Z,97725.72
2023-01-22T12:47:16.608Z,97725.25
2023-01-22T12:49:49.850Z,97729.38
2023-01-22T12:52:37.604Z,97728.47
2023-01-22T12:55:24.324Z,97727.22
2023-01-22T12:57:56.241Z,97733.00
2023-01-22T13:00:30.558Z,97734.66
2023-01-22T13:03:02.558Z,97734.66
2023-01-22T13:05:41.453Z,97735.84
2023-01-22T13:08:35.687Z,97730.22
2023-01-22T13:11:07.077Z,97731.78
2023-01-22T13:13:42.103Z,97738.06
2023-01-22T13:16:24.779Z,97740.03
2023-01-22T13:19:17.813Z,97734.78
2023-01-22T13:22:01.140Z,97738.63
2023-01-22T13:24:32.371Z,97738.66
2023-01-22T13:27:08.027Z,97741.56
2023-01-22T13:29:39.801Z,97747.44
2023-01-22T13:32:20.782Z,97739.41
2023-01-22T13:34:50.380Z,97749.22
2023-01-22T13:37:23.366Z,97743.09
2023-01-22T13:39:54.102Z,97747.59
2023-01-22T13:42:25.007Z,97744.94
2023-01-22T13:44:54.828Z,97749.34
2023-01-22T13:47:29.616Z,97750.13
2023-01-22T13:49:58.950Z,97752.28
2023-01-22T13:52:30.236Z,97758.59
2023-01-22T13:55:16.957Z,97755.50
2023-01-22T13:57:46.761Z,97762.75
2023-01-22T14:00:31.215Z,97757.00
2023-01-22T14:03:01.644Z,97763.41
2023-01-22T14:05:35.172Z,97770.84
2023-01-22T14:08:08.131Z,97772.41
2023-01-22T14:10:38.740Z,97772.69
2023-01-22T14:13:10.816Z,97777.75
2023-01-22T14:15:40.520Z,97778.63
2023-01-22T14:18:11.176Z,97774.09
2023-01-22T14:20:41.499Z,97782.19
2023-01-22T14:23:31.900Z,97779.38
2023-01-22T14:26:05.398Z,97781.31
2023-01-22T14:28:36.233Z,97782.53
2023-01-22T14:31:05.964Z,97783.34
2023-01-22T14:33:36.271Z,97788.84
2023-01-22T14:36:13.981Z,97797.75
2023-01-22T14:38:43.685Z,97798.50
2023-01-22T14:41:14.539Z,97797.94
2023-01-22T14:43:43.853Z,97790.59
2023-01-22T14:46:13.108Z,97799.38
2023-01-22T14:48:42.444Z,97795.13
2023-01-22T14:51:21.943Z,97793.09
2023-01-22T14:53:50.996Z,97801.19
2023-01-22T14:56:30.504Z,97800.59
2023-01-22T14:59:02.872Z,97807.56
2023-01-22T15:01:37.706Z,97809.53
2023-01-22T15:04:08.954Z,97813.16
2023-01-22T15:06:41.217Z,97817.72
2023-01-22T15:09:12.534Z,97816.56
2023-01-22T15:11:42.995Z,97823.09
2023-01-22T15:14:15.586Z,97825.63
2023-01-22T15:16:45.004Z,97829.69
2023-01-22T15:19:14.569Z,97829.31
2023-01-22T15:21:46.663Z,97821.63
2023-01-22T15:24:16.468Z,97827.47
2023-01-22T15:26:50.691Z,97834.19
2023-01-22T15:29:25.789Z,97833.38
2023-01-22T15:31:57.419Z,97841.06
2023-01-22T15:34:26.886Z,97840.25
2023-01-22T15:36:56.267Z,97837.81
2023-01-22T15:39:27.418Z,97839.00
2023-01-22T15:41:58.573Z,97847.09
2023-01-22T15:44:30.294Z,97843.00
2023-01-22T15:47:02.397Z,97850.13
2023-01-22T15:49:33.033Z,97851.59
2023-01-22T15:52:02.233Z,97852.84
2023-01-22T15:54:31.991Z,97850.84
2023-01-22T15:57:03.094Z,97858.94
2023-01-22T15:59:32.294Z,97855.06
2023-01-22T16:02:07.552Z,97858.50
2023-01-22T16:04:36.616Z,97855.13
2023-01-22T16:07:05.888Z,97860.16
2023-01-22T16:09:38.951Z,97861.38
2023-01-22T16:12:12.185Z,97867.69
2023-01-22T16:14:41.814Z,97862.59
2023-01-22T16:17:10.813Z,97864.16
2023-01-22T16:19:40.108Z,97868.22
2023-01-22T16:22:09.289Z,97871.88
2023-01-22T16:24:41.274Z,97864.19
2023-01-22T16:27:11.782Z,97868.69
2023-01-22T16:29:41.408Z,97865.41
2023-01-22T16:32:12.002Z,97873.97
2023-01-22T16:34:42.057Z,97870.53
2023-01-22T16:37:11.156Z,97873.56
2023-01-22T16:39:43.929Z,97874.78
2023-01-22T16:42:14.583Z,97879.25
2023-01-22T16:44:45.495Z,97883.72
2023-01-22T16:47:15.018Z,97886.56
2023-01-22T16:49:47.699Z,97891.84
2023-01-22T16:52:22.747Z,97890.63
2023-01-22T16:54:53.463Z,97900.81
2023-01-22T16:57:24.114Z,97899.19
2023-01-22T16:59:53.099Z,97900.38
2023-01-22T17:02:22.031Z,97897.34
2023-01-22T17:04:51.143Z,97896.75
2023-01-22T17:07:33.312Z,97913.59
2023-01-22T17:10:02.994Z,97914.19
2023-01-22T17:12:33.715Z,97902.03
2023-01-22T17:15:03.137Z,97906.47
2023-01-22T17:17:32.719Z,97900.38
2023-01-22T17:20:01.933Z,97910.94
2023-01-22T17:22:33.408Z,97904.41
2023-01-22T17:25:02.600Z,97908.06
2023-01-22T17:27:33.538Z,97916.63
2023-01-22T17:30:13.596Z,97910.34
2023-01-22T17:32:42.788Z,97917.44
2023-01-22T17:35:13.738Z,97916.00
2023-01-22T17:37:43.104Z,97915.41
2023-01-22T17:40:13.793Z,97913.78
2023-01-22T17:42:49.318Z,97921.09
2023-01-22T17:45:19.061Z,97921.50
2023-01-22T17:47:48.639Z,97927.81
2023-01-22T17:50:18.162Z,97922.72
2023-01-22T17:52:49.392Z,97928.81
2023-01-22T17:55:20.709Z,97931.66
2023-01-22T17:57:55.643Z,97926.38
2023-01-22T18:00:55.794Z,97932.84
2023-01-22T18:03:24.994Z,97933.66
2023-01-22T18:05:54.905Z,97931.81
2023-01-22T18:08:24.299Z,97944.41
2023-01-22T18:10:53.925Z,97940.56
2023-01-22T18:13:27.835Z,97933.63
2023-01-22T18:15:57.042Z,97933.22
2023-01-22T18:18:43.011Z,97938.91
2023-01-22T18:21:14.677Z,97949.88
2023-01-22T18:23:43.874Z,97945.81
2023-01-22T18:26:13.995Z,97934.63
2023-01-22T18:28:45.008Z,97948.47
2023-01-22T18:31:16.172Z,97948.25
2023-01-22T18:33:51.302Z,97949.88
2023-01-22T18:36:22.156Z,97948.03
2023-01-22T18:38:54.232Z,97953.13
2023-01-22T18:41:25.374Z,97952.72
2023-01-22T18:44:00.415Z,97952.72
2023-01-22T18:46:33.363Z,97950.50
2023-01-22T18:49:06.078Z,97962.06
2023-01-22T18:51:35.792Z,97963.53
2023-01-22T18:54:06.486Z,97962.91
2023-01-22T18:56:37.156Z,97973.47
2023-01-22T18:59:12.061Z,97965.75
2023-01-22T19:02:01.477Z,97970.63
2023-01-22T19:04:30.708Z,97965.16
2023-01-22T19:07:01.184Z,97961.91
2023-01-22T19:09:31.919Z,97968.22
2023-01-22T19:12:13.738Z,97963.34
2023-01-22T19:14:44.448Z,97971.47
2023-01-22T19:17:14.159Z,97968.00
2023-01-22T19:19:51.867Z,97968.19
2023-01-22T19:22:23.621Z,97977.56
2023-01-22T19:24:52.613Z,97978.56
2023-01-22T19:27:21.594Z,97977.56
2023-01-22T19:29:58.074Z,97983.66
2023-01-22T19:32:45.736Z,97984.06
2023-01-22T19:35:24.057Z,97985.28
2023-01-22T19:37:55.621Z,98005.22
2023-01-22T19:40:25.070Z,98002.97
2023-01-22T19:42:55.825Z,98000.75
2023-01-22T19:45:32.678Z,98011.69
2023-01-22T19:48:07.013Z,98003.16
2023-01-22T19:50:41.223Z,98018.19
2023-01-22T19:53:21.692Z,98015.34
2023-01-22T19:55:53.844Z,98021.44
2023-01-22T19:58:23.452Z,98021.44
2023-01-22T20:00:58.379Z,98027.53
2023-01-22T20:03:30.369Z,98027.72
2023-01-22T20:06:09.707Z,98031.00
2023-01-22T20:08:39.191Z,98037.28
2023-01-22T20:11:09.746Z,98034.44
2023-01-22T20:13:39.655Z,98043.78
2023-01-22T20:16:18.450Z,98043.78
2023-01-22T20:18:51.266Z,98049.47
2023-01-22T20:21:28.658Z,98045.78
2023-01-22T20:23:57.834Z,98050.63
2023-01-22T20:26:27.257Z,98054.69
2023-01-22T20:28:57.282Z,98059.53
2023-01-22T20:31:30.836Z,98056.44
2023-01-22T20:34:01.604Z,98064.41
2023-01-22T20:40:19.884Z,98070.31
2023-01-22T20:42:54.517Z,98062.84
2023-01-22T20:45:24.016Z,98067.34
2023-01-22T20:47:54.550Z,98062.06
2023-01-22T20:50:28.560Z,98064.09
2023-01-22T20:52:57.755Z,98056.34
2023-01-22T20:56:02.473Z,98053.50
2023-01-22T20:58:42.852Z,98057.56
2023-01-22T21:01:16.170Z,98057.56
2023-01-22T21:03:47.892Z,98051.84
2023-01-22T21:06:21.279Z,98053.09
2023-01-22T21:08:56.452Z,98048.22
2023-01-22T21:11:27.380Z,98053.09
2023-01-22T21:13:57.924Z,98053.84
2023-01-22T21:16:30.895Z,98054.63
2023-01-22T21:19:02.860Z,98053.06
2023-01-22T21:21:32.984Z,98055.94
2023-01-22T21:24:03.001Z,98059.19
2023-01-22T21:26:33.836Z,98066.50
2023-01-22T21:29:09.174Z,98066.09
2023-01-22T21:31:38.926Z,98077.38
2023-01-22T21:34:45.462Z,98078.53
2023-01-22T21:37:14.948Z,98091.63
2023-01-22T21:39:47.968Z,98084.97
2023-01-22T21:42:37.740Z,98074.63
2023-01-22T21:45:43.658Z,98076.28
2023-01-22T21:48:20.592Z,98075.25
2023-01-22T21:50:51.354Z,98071.00
2023-01-22T21:53:28.177Z,98081.59
2023-01-22T21:55:58.109Z,98086.66
2023-01-22T21:58:54.735Z,98079.34
2023-01-22T22:01:24.299Z,98076.69
2023-01-22T22:04:03.835Z,98065.72
2023-01-22T22:06:58.906Z,98060.44
2023-01-22T22:09:29.146Z,98064.94
2023-01-22T22:12:22.703Z,98073.03
2023-01-22T22:14:53.538Z,98083.59
2023-01-22T22:17:35.279Z,98083.19
2023-01-22T22:20:05.149Z,98078.69
2023-01-22T22:22:35.472Z,98078.28
2023-01-22T22:25:11.696Z,98077.91
2023-01-22T22:27:43.408Z,98078.69
2023-01-22T22:30:13.614Z,98080.91
2023-01-22T22:32:44.862Z,98071.78
2023-01-22T22:35:17.436Z,98080.50
2023-01-22T22:37:53.893Z,98075.03
2023-01-22T22:40:22.885Z,98064.47
2023-01-22T22:42:52.318Z,98070.25
2023-01-22T22:45:21.960Z,98068.03
2023-01-22T22:47:51.914Z,98066.44
2023-01-22T22:50:21.448Z,98078.66
2023-01-22T22:52:50.945Z,98074.00
2023-01-22T22:55:21.478Z,98074.34
2023-01-22T22:57:50.988Z,98083.72
2023-01-22T23:00:21.850Z,98080.06
2023-01-22T23:02:51.527Z,98090.25
2023-01-22T23:05:21.317Z,98081.91
2023-01-22T23:08:37.550Z,98092.00
2023-01-22T23:11:12.484Z,98093.47
2023-01-22T23:13:42.071Z,98095.91
2023-01-22T23:16:20.141Z,98102.25
2023-01-22T23:18:52.265Z,98092.09
2023-01-22T23:21:24.918Z,98099.38
2023-01-22T23:23:55.273Z,98102.25
2023-01-22T23:26:30.026Z,98101.81
2023-01-22T23:29:02.412Z,98103.47
2023-01-22T23:31:33.289Z,98099.41
2023-01-22T23:34:03.940Z,98103.06
2023-01-22T23:36:35.288Z,98106.09
2023-01-22T23:39:05.219Z,98111.38
2023-01-22T23:41:38.501Z,98110.78
2023-01-22T23:44:11.907Z,98109.56
2023-01-22T23:46:45.087Z,98114.81
2023-01-22T23:49:20.124Z,98116.03
2023-01-22T23:51:59.465Z,98120.72
2023-01-22T23:54:28.856Z,98106.66
2023-01-22T23:57:05.234Z,98114.00
2023-01-22T23:59:37.100Z,98112.53
